createdAt,value
2023-01-13T00:02:28.537Z,0.60
2023-01-13T00:05:29.901Z,0.80
2023-01-13T00:08:33.911Z,0.65
2023-01-13T00:11:35.276Z,0.77
2023-01-13T00:14:37.867Z,0.53
2023-01-13T00:17:40.519Z,0.70
2023-01-13T00:20:41.826Z,0.70
2023-01-13T00:23:45.888Z,0.60
2023-01-13T00:26:47.424Z,0.80
2023-01-13T00:29:50.353Z,0.60
2023-01-13T00:32:52.391Z,0.50
2023-01-13T00:35:58.393Z,0.75
2023-01-13T00:39:01.795Z,0.70
2023-01-13T00:42:21.330Z,0.70
2023-01-13T00:45:23.945Z,0.50
2023-01-13T00:48:27.022Z,0.70
2023-01-13T00:51:29.636Z,0.57
2023-01-13T00:54:32.928Z,0.80
2023-01-13T00:57:35.648Z,0.60
2023-01-13T01:00:37.032Z,0.60
2023-01-13T01:03:39.731Z,0.70
2023-01-13T01:06:42.332Z,0.60
2023-01-13T01:09:44.385Z,0.40
2023-01-13T01:12:46.969Z,0.50
2023-01-13T01:15:50.156Z,0.60
2023-01-13T01:18:54.445Z,0.55
2023-01-13T01:21:55.850Z,0.60
2023-01-13T01:24:59.411Z,0.60
2023-01-13T01:28:00.788Z,0.60
2023-01-13T01:31:07.338Z,0.60
2023-01-13T01:34:08.753Z,0.50
2023-01-13T01:37:11.349Z,0.60
2023-01-13T01:44:03.061Z,0.60
2023-01-13T01:47:05.882Z,0.70
2023-01-13T01:50:10.702Z,0.70
2023-01-13T01:53:18.264Z,0.65
2023-01-13T01:56:22.118Z,0.77
2023-01-13T01:59:25.854Z,0.50
2023-01-13T02:02:29.199Z,0.50
2023-01-13T02:05:30.572Z,0.77
2023-01-13T02:08:33.989Z,0.40
2023-01-13T02:11:56.115Z,0.60
2023-01-13T02:15:00.662Z,0.60
2023-01-13T02:18:41.645Z,0.60
2023-01-13T02:22:18.828Z,0.80
2023-01-13T02:25:50.294Z,0.50
2023-01-13T02:29:32.629Z,0.70
2023-01-13T02:32:48.130Z,0.40
2023-01-13T02:35:56.779Z,0.40
2023-01-13T02:39:14.992Z,0.68
2023-01-13T02:42:46.226Z,0.60
2023-01-13T02:45:52.346Z,0.60
2023-01-13T02:48:57.947Z,0.50
2023-01-13T02:52:07.560Z,0.50
2023-01-13T02:55:13.479Z,0.68
2023-01-13T02:58:19.017Z,0.40
2023-01-13T03:01:22.358Z,0.50
2023-01-13T03:08:23.101Z,0.50
2023-01-13T03:11:31.907Z,0.52
2023-01-13T03:14:40.064Z,0.40
2023-01-13T03:17:50.689Z,0.70
2023-01-13T03:21:02.744Z,0.50
2023-01-13T03:24:10.251Z,0.40
2023-01-13T03:27:20.479Z,0.80
2023-01-13T03:30:27.034Z,0.40
2023-01-13T03:33:36.572Z,0.70
2023-01-13T03:40:08.886Z,0.50
2023-01-13T03:43:35.141Z,0.50
2023-01-13T03:46:45.270Z,0.43
2023-01-13T03:49:55.311Z,0.60
2023-01-13T03:53:03.770Z,0.60
2023-01-13T03:56:09.599Z,0.50
2023-01-13T04:02:47.468Z,0.50
2023-01-13T04:05:54.023Z,0.70
2023-01-13T04:09:07.428Z,0.30
2023-01-13T04:12:13.955Z,0.52
2023-01-13T04:15:17.495Z,0.73
2023-01-13T04:18:21.750Z,0.32
2023-01-13T04:21:24.315Z,0.70
2023-01-13T04:24:26.587Z,0.50
2023-01-13T04:27:29.107Z,0.60
2023-01-13T04:30:32.278Z,0.60
2023-01-13T04:36:54.466Z,0.60
2023-01-13T04:39:57.594Z,0.43
2023-01-13T04:42:58.943Z,0.50
2023-01-13T04:46:00.720Z,0.70
2023-01-13T04:49:02.077Z,0.60
2023-01-13T04:52:06.239Z,0.60
2023-01-13T04:55:10.347Z,0.68
2023-01-13T04:58:11.906Z,0.53
2023-01-13T05:01:14.646Z,0.40
2023-01-13T05:04:16.363Z,0.80
2023-01-13T05:07:24.774Z,0.72
2023-01-13T05:10:27.775Z,0.30
2023-01-13T05:13:58.888Z,0.45
2023-01-13T05:17:01.585Z,0.60
2023-01-13T05:20:03.294Z,0.43
2023-01-13T05:23:23.644Z,0.40
2023-01-13T05:26:26.244Z,0.50
2023-01-13T05:29:27.532Z,0.45
2023-01-13T05:32:30.077Z,0.60
2023-01-13T05:35:31.425Z,0.60
2023-01-13T05:38:33.028Z,0.57
2023-01-13T05:41:54.015Z,0.93
2023-01-13T05:44:55.663Z,0.75
2023-01-13T05:47:57.321Z,0.75
2023-01-13T05:50:59.255Z,1.10
2023-01-13T05:54:01.886Z,0.73
2023-01-13T05:57:05.485Z,0.97
2023-01-13T06:00:08.072Z,1.10
2023-01-13T06:03:11.344Z,0.70
2023-01-13T06:06:12.870Z,0.60
2023-01-13T06:09:16.520Z,0.60
2023-01-13T06:12:18.943Z,0.90
2023-01-13T06:15:20.922Z,0.93
2023-01-13T06:18:22.538Z,0.80
2023-01-13T06:21:23.897Z,0.90
2023-01-13T06:24:26.487Z,0.90
2023-01-13T06:27:29.294Z,0.97
2023-01-13T06:30:37.726Z,0.80
2023-01-13T06:33:46.212Z,0.70
2023-01-13T06:36:54.971Z,0.82
2023-01-13T06:40:00.977Z,1.00
2023-01-13T06:43:16.924Z,0.90
2023-01-13T06:46:20.157Z,0.90
2023-01-13T06:49:21.810Z,0.80
2023-01-13T06:52:24.940Z,1.15
2023-01-13T06:55:26.274Z,1.07
2023-01-13T06:58:28.258Z,1.33
2023-01-13T07:01:30.050Z,1.33
2023-01-13T07:04:31.477Z,1.48
2023-01-13T07:07:33.187Z,1.20
2023-01-13T07:10:35.790Z,1.30
2023-01-13T07:17:28.968Z,1.42
2023-01-13T07:20:31.974Z,1.50
2023-01-13T07:23:35.955Z,1.58
2023-01-13T07:26:38.643Z,2.00
2023-01-13T07:29:40.825Z,1.80
2023-01-13T07:32:42.492Z,1.80
2023-01-13T07:35:45.223Z,2.13
2023-01-13T07:38:46.626Z,1.60
2023-01-13T07:42:07.599Z,1.47
2023-01-13T07:45:12.391Z,1.60
2023-01-13T07:48:15.111Z,1.45
2023-01-13T07:51:16.625Z,1.30
2023-01-13T07:54:25.545Z,1.40
2023-01-13T07:57:34.546Z,0.97
2023-01-13T08:00:38.980Z,1.07
2023-01-13T08:03:41.922Z,0.80
2023-01-13T08:06:45.151Z,0.80
2023-01-13T08:09:47.012Z,0.80
2023-01-13T08:13:18.392Z,0.67
2023-01-13T08:16:22.196Z,0.70
2023-01-13T08:19:25.563Z,0.60
2023-01-13T08:22:30.441Z,0.60
2023-01-13T08:25:36.800Z,0.80
2023-01-13T08:28:49.199Z,0.60
2023-01-13T08:31:52.363Z,0.75
2023-01-13T08:34:57.456Z,0.70
2023-01-13T08:37:59.364Z,0.50
2023-01-13T08:41:12.463Z,1.05
2023-01-13T08:44:15.356Z,0.70
2023-01-13T08:47:18.766Z,0.70
2023-01-13T08:50:20.625Z,0.82
2023-01-13T08:53:22.481Z,0.45
2023-01-13T08:56:25.536Z,0.60
2023-01-13T08:59:27.086Z,0.50
2023-01-13T09:02:31.528Z,0.50
2023-01-13T09:05:35.225Z,0.70
2023-01-13T09:08:38.109Z,0.70
2023-01-13T09:12:00.872Z,0.90
2023-01-13T09:15:12.618Z,0.40
2023-01-13T09:18:15.049Z,0.50
2023-01-13T09:21:24.488Z,0.70
2023-01-13T09:24:26.719Z,0.90
2023-01-13T09:27:30.129Z,0.82
2023-01-13T09:30:33.269Z,0.60
2023-01-13T09:33:56.061Z,0.60
2023-01-13T09:36:57.587Z,1.08
2023-01-13T09:40:00.476Z,0.70
2023-01-13T09:43:30.827Z,0.70
2023-01-13T09:46:47.674Z,0.90
2023-01-13T09:49:50.410Z,0.80
2023-01-13T09:52:54.640Z,0.80
2023-01-13T09:55:56.211Z,0.80
2023-01-13T09:58:59.167Z,0.70
2023-01-13T10:02:14.222Z,0.70
2023-01-13T10:05:27.886Z,0.60
2023-01-13T10:08:33.657Z,0.88
2023-01-13T10:12:00.361Z,0.70
2023-01-13T10:15:03.094Z,0.80
2023-01-13T10:18:16.852Z,0.70
2023-01-13T10:21:33.205Z,0.50
2023-01-13T10:24:53.297Z,0.70
2023-01-13T10:27:56.363Z,0.45
2023-01-13T10:30:59.572Z,0.70
2023-01-13T10:34:03.528Z,0.50
2023-01-13T10:37:07.203Z,0.68
2023-01-13T10:40:19.336Z,0.95
2023-01-13T10:43:21.297Z,0.45
2023-01-13T10:46:23.074Z,0.80
2023-01-13T10:49:28.896Z,0.60
2023-01-13T10:52:34.352Z,0.70
2023-01-13T10:55:38.592Z,1.10
2023-01-13T10:58:40.388Z,0.60
2023-01-13T11:01:55.287Z,0.93
2023-01-13T11:05:03.309Z,0.60
2023-01-13T11:08:17.845Z,0.60
2023-01-13T11:11:36.571Z,0.73
2023-01-13T11:14:42.644Z,0.68
2023-01-13T11:17:50.567Z,0.70
2023-01-13T11:20:56.121Z,0.77
2023-01-13T11:24:07.256Z,0.60
2023-01-13T11:27:18.521Z,0.90
2023-01-13T11:30:34.405Z,1.05
2023-01-13T11:37:10.992Z,0.60
2023-01-13T11:40:18.503Z,0.60
2023-01-13T11:43:29.023Z,0.90
2023-01-13T11:46:31.925Z,0.40
2023-01-13T11:49:33.814Z,0.73
2023-01-13T11:53:00.853Z,0.53
2023-01-13T11:56:19.320Z,0.68
2023-01-13T11:59:45.088Z,0.77
2023-01-13T12:03:05.652Z,0.80
2023-01-13T12:06:25.340Z,1.00
2023-01-13T12:09:43.812Z,0.50
2023-01-13T12:13:01.341Z,0.52
2023-01-13T12:16:25.036Z,0.88
2023-01-13T12:19:29.454Z,0.80
2023-01-13T12:22:36.845Z,0.85
2023-01-13T12:25:53.999Z,0.60
2023-01-13T12:29:01.941Z,0.60
2023-01-13T12:32:07.541Z,1.15
2023-01-13T12:35:31.491Z,0.60
2023-01-13T12:38:37.960Z,0.80
2023-01-13T12:42:05.013Z,0.80
2023-01-13T12:45:22.674Z,0.80
2023-01-13T12:48:49.564Z,1.00
2023-01-13T12:52:28.233Z,1.02
2023-01-13T12:55:33.001Z,1.00
2023-01-13T13:02:32.476Z,0.82
2023-01-13T13:05:48.145Z,0.80
2023-01-13T13:09:03.941Z,1.00
2023-01-13T13:13:09.361Z,0.75
2023-01-13T13:16:52.349Z,0.70
2023-01-13T13:20:34.361Z,0.80
2023-01-13T13:23:55.376Z,1.00
2023-01-13T13:26:57.050Z,0.90
2023-01-13T13:30:01.335Z,0.80
2023-01-13T13:33:16.378Z,0.70
2023-01-13T13:36:44.929Z,0.70
2023-01-13T13:40:04.651Z,1.07
2023-01-13T13:43:30.679Z,1.07
2023-01-13T13:46:50.545Z,0.90
2023-01-13T13:49:54.958Z,1.05
2023-01-13T13:53:04.562Z,1.55
2023-01-13T13:56:20.219Z,1.00
2023-01-13T13:59:25.028Z,1.10
2023-01-13T14:02:33.719Z,1.00
2023-01-13T14:05:38.774Z,0.80
2023-01-13T14:08:49.678Z,0.85
2023-01-13T14:12:00.324Z,0.70
2023-01-13T14:15:03.605Z,1.00
2023-01-13T14:18:12.026Z,1.17
2023-01-13T14:21:21.372Z,1.00
2023-01-13T14:24:24.322Z,0.98
2023-01-13T14:27:28.054Z,1.20
2023-01-13T14:30:29.523Z,1.07
2023-01-13T14:36:59.222Z,1.25
2023-01-13T14:40:03.180Z,1.25
2023-01-13T14:43:12.694Z,1.43
2023-01-13T14:46:16.828Z,1.00
2023-01-13T14:49:25.242Z,1.00
2023-01-13T14:52:29.453Z,0.88
2023-01-13T14:55:33.173Z,1.13
2023-01-13T14:58:34.715Z,1.07
2023-01-13T15:01:38.628Z,1.30
2023-01-13T15:04:40.950Z,1.20
2023-01-13T15:07:50.059Z,1.77
2023-01-13T15:10:54.897Z,1.90
2023-01-13T15:14:01.726Z,1.50
2023-01-13T15:17:17.765Z,1.53
2023-01-13T15:20:21.327Z,1.63
2023-01-13T15:23:23.020Z,1.60
2023-01-13T15:26:27.300Z,1.80
2023-01-13T15:29:29.162Z,1.73
2023-01-13T15:32:30.477Z,2.40
2023-01-13T15:35:42.400Z,1.63
2023-01-13T15:38:43.734Z,1.60
2023-01-13T15:42:03.898Z,1.30
2023-01-13T15:45:24.336Z,1.93
2023-01-13T15:48:28.445Z,1.40
2023-01-13T15:51:30.995Z,1.42
2023-01-13T15:54:32.802Z,1.63
2023-01-13T15:57:38.876Z,1.88
2023-01-13T16:00:41.010Z,1.50
2023-01-13T16:03:43.744Z,1.10
2023-01-13T16:06:47.889Z,1.70
2023-01-13T16:09:49.377Z,1.27
2023-01-13T16:12:53.239Z,1.83
2023-01-13T16:15:56.670Z,2.13
2023-01-13T16:18:59.586Z,1.43
2023-01-13T16:22:00.904Z,1.00
2023-01-13T16:25:03.570Z,0.93
2023-01-13T16:28:07.499Z,1.00
2023-01-13T16:31:18.086Z,1.27
2023-01-13T16:37:40.504Z,1.15
2023-01-13T16:40:43.699Z,0.90
2023-01-13T16:43:46.267Z,0.93
2023-01-13T16:46:47.970Z,1.20
2023-01-13T16:49:49.645Z,1.20
2023-01-13T16:52:50.912Z,0.88
2023-01-13T16:55:52.371Z,1.20
2023-01-13T16:58:57.210Z,0.88
2023-01-13T17:01:58.689Z,1.33
2023-01-13T17:05:01.267Z,1.03
2023-01-13T17:08:02.685Z,1.23
2023-01-13T17:11:05.576Z,1.17
2023-01-13T17:14:19.199Z,0.98
2023-01-13T17:17:24.988Z,1.27
2023-01-13T17:20:27.772Z,1.40
2023-01-13T17:23:30.694Z,1.00
2023-01-13T17:26:37.609Z,1.10
2023-01-13T17:29:40.981Z,1.08
2023-01-13T17:32:42.289Z,1.67
2023-01-13T17:35:46.492Z,1.47
2023-01-13T17:38:48.095Z,1.73
2023-01-13T17:41:51.585Z,1.58
2023-01-13T17:44:53.694Z,1.27
2023-01-13T17:47:58.428Z,1.23
2023-01-13T17:51:01.150Z,1.20
2023-01-13T17:54:02.471Z,1.80
2023-01-13T17:57:05.104Z,1.33
2023-01-13T18:00:08.674Z,1.35
2023-01-13T18:03:11.792Z,1.63
2023-01-13T18:06:15.963Z,2.20
2023-01-13T18:09:18.766Z,1.50
2023-01-13T18:12:21.356Z,1.58
2023-01-13T18:15:23.290Z,1.60
2023-01-13T18:18:24.634Z,1.40
2023-01-13T18:21:44.756Z,1.20
2023-01-13T18:25:05.469Z,1.40
2023-01-13T18:28:08.038Z,1.40
2023-01-13T18:31:10.127Z,1.23
2023-01-13T18:34:13.192Z,1.27
2023-01-13T18:37:16.209Z,1.07
2023-01-13T18:40:19.000Z,1.10
2023-01-13T18:43:21.642Z,2.05
2023-01-13T18:46:23.811Z,1.08
2023-01-13T18:49:26.552Z,1.17
2023-01-13T18:52:28.491Z,1.00
2023-01-13T18:55:31.094Z,1.30
2023-01-13T18:58:32.664Z,1.00
2023-01-13T19:01:38.339Z,0.90
2023-01-13T19:04:41.353Z,1.60
2023-01-13T19:07:51.021Z,1.20
2023-01-13T19:10:52.383Z,1.10
2023-01-13T19:13:55.259Z,1.13
2023-01-13T19:16:58.553Z,1.13
2023-01-13T19:20:01.255Z,1.20
2023-01-13T19:23:02.842Z,1.20
2023-01-13T19:26:07.353Z,1.55
2023-01-13T19:29:08.803Z,1.40
2023-01-13T19:32:12.911Z,1.00
2023-01-13T19:35:18.258Z,1.87
2023-01-13T19:38:19.892Z,2.03
2023-01-13T19:41:40.744Z,2.40
2023-01-13T19:45:00.112Z,1.83
2023-01-13T19:48:05.738Z,1.48
2023-01-13T19:51:07.373Z,1.33
2023-01-13T19:54:09.947Z,1.43
2023-01-13T19:57:11.816Z,1.17
2023-01-13T20:00:21.029Z,1.50
2023-01-13T20:03:26.703Z,1.70
2023-01-13T20:06:29.410Z,1.80
2023-01-13T20:09:31.907Z,2.07
2023-01-13T20:12:34.452Z,1.50
2023-01-13T20:15:37.346Z,1.20
2023-01-13T20:18:41.614Z,1.52
2023-01-13T20:21:43.464Z,1.40
2023-01-13T20:24:46.447Z,1.60
2023-01-13T20:27:48.159Z,1.17
2023-01-13T20:30:51.001Z,1.40
2023-01-13T20:33:53.282Z,1.45
2023-01-13T20:36:55.873Z,1.10
2023-01-13T20:40:01.876Z,1.00
2023-01-13T20:43:04.546Z,1.40
2023-01-13T20:46:07.361Z,1.45
2023-01-13T20:49:12.632Z,1.48
2023-01-13T20:52:14.000Z,1.67
2023-01-13T20:55:16.572Z,1.37
2023-01-13T20:58:17.895Z,1.35
2023-01-13T21:01:23.392Z,1.73
2023-01-13T21:04:27.002Z,1.17
2023-01-13T21:07:28.306Z,1.63
2023-01-13T21:10:29.900Z,1.40
2023-01-13T21:13:50.809Z,1.52
2023-01-13T21:16:52.117Z,1.40
2023-01-13T21:19:55.087Z,1.63
2023-01-13T21:22:56.729Z,1.60
2023-01-13T21:26:01.418Z,1.40
2023-01-13T21:29:03.497Z,1.30
2023-01-13T21:32:06.896Z,1.58
2023-01-13T21:35:10.988Z,1.23
2023-01-13T21:38:14.294Z,1.67
2023-01-13T21:41:36.849Z,1.60
2023-01-13T21:44:56.457Z,1.38
2023-01-13T21:47:59.063Z,1.25
2023-01-13T21:51:01.031Z,1.10
2023-01-13T21:54:03.843Z,1.60
2023-01-13T21:57:05.105Z,1.73
2023-01-13T22:00:09.463Z,2.20
2023-01-13T22:03:14.465Z,1.70
2023-01-13T22:06:16.763Z,1.15
2023-01-13T22:09:19.372Z,1.83
2023-01-13T22:12:23.322Z,1.90
2023-01-13T22:15:27.536Z,1.30
2023-01-13T22:18:28.846Z,1.55
2023-01-13T22:21:32.365Z,1.27
2023-01-13T22:24:35.256Z,1.70
2023-01-13T22:27:41.244Z,1.30
2023-01-13T22:30:42.525Z,1.40
2023-01-13T22:33:47.502Z,1.42
2023-01-13T22:36:49.554Z,1.15
2023-01-13T22:39:52.206Z,1.47
2023-01-13T22:42:53.486Z,1.30
2023-01-13T22:45:59.817Z,1.55
2023-01-13T22:49:01.478Z,1.80
2023-01-13T22:52:06.368Z,1.25
2023-01-13T22:55:09.492Z,1.37
2023-01-13T22:58:10.839Z,1.07
2023-01-13T23:01:17.685Z,1.17
2023-01-13T23:04:19.452Z,1.50
2023-01-13T23:07:22.896Z,1.40
2023-01-13T23:10:24.219Z,1.83
2023-01-13T23:13:26.813Z,1.07
2023-01-13T23:16:29.676Z,1.40
2023-01-13T23:19:32.909Z,1.73
2023-01-13T23:22:37.811Z,1.60
2023-01-13T23:25:41.127Z,1.67
2023-01-13T23:28:43.697Z,1.50
2023-01-13T23:31:46.239Z,1.30
2023-01-13T23:34:48.828Z,1.50
2023-01-13T23:37:52.043Z,1.70
2023-01-13T23:40:54.882Z,1.90
2023-01-13T23:43:59.372Z,2.27
2023-01-13T23:47:00.855Z,1.73
2023-01-13T23:50:03.445Z,1.70
2023-01-13T23:56:29.521Z,1.63
2023-01-13T23:59:32.052Z,1.23
